Terminal Aerodrome Forecast
Issued by NWS Charleston, WV

Current Version | Previous Version | Graphics & Text | Print | Product List | Glossary On
Versions: 1 2 3 4 5 6 7 8 9 10 11 12 13 14 15 16 17 18 19 20 21 22 23 24 25 26 27
000
FTUS41 KRLX 200905 AAB
TAFPKB
TAF AMD
KPKB 200905Z 2009/2106 00000KT 2SM BR OVC003
     FM201300 00000KT 4SM BR SCT013
     FM201400 00000KT P6SM BKN020
     FM201800 00000KT P6SM SHRA VCTS BKN025CB
     FM202000 VRB03KT P6SM BKN050=

USA.gov is the U.S. government's official web portal to all federal, state and local government web resources and services.